M/T Vemaoil Xi — 9HWD7 — position and weather

sailwx.info

Track history (hours):
 
Tides and Currents Weather Stations Pressure Air Temp Water Temp Dewpoint Dewpoint Depression Visibility Wind Speed Wind Dir Waves Ship Positions

M/T Vemaoil Xi

Last reported at 2017-Apr-24 04:42 UTC. Time now 2017-Apr-24 09:59 UTC.
Position N 35°54' E 014°31'.

Length 105 m; draft 6 m.

Type: Tanker. MMSI: 215631000.

Date/timePositionNaut miles runAvg speedWind from/ knotsBaromVisibWave heightAir tempDewpointWater temp
2017-Apr-24 04:42N 35°54' E 014°31'1 5.6
2017-Apr-24 04:30N 35°54' E 014°33'3 7.0
2017-Apr-24 04:00N 35°52' E 014°36'2 1.1
2017-Apr-24 02:21N 35°50' E 014°35'0 0.0
2017-Apr-24 01:51N 35°50' E 014°35'0 0.0
2017-Apr-24 00:45N 35°50' E 014°35'0 0.0
2017-Apr-23 20:06N 35°50' E 014°36'0 0.0
2017-Apr-23 17:12N 35°50' E 014°36'0 0.0
2017-Apr-23 15:24N 35°50' E 014°36'0 0.0
2017-Apr-23 14:57N 35°50' E 014°36'0 0.0
2017-Apr-23 13:54N 35°50' E 014°36'0 0.0
2017-Apr-23 13:09N 35°50' E 014°36'0 0.0
2017-Apr-23 12:54N 35°50' E 014°36'0 0.0
2017-Apr-23 12:30N 35°50' E 014°36'0 0.0
2017-Apr-23 12:00N 35°50' E 014°36'0 0.0
2017-Apr-23 09:12N 35°50' E 014°36'0 0.1
2017-Apr-23 09:00N 35°50' E 014°36'0 0.0
2017-Apr-23 08:24N 35°50' E 014°36'0 0.0
2017-Apr-22 10:45N 35°50' E 014°36'1 4.9
2017-Apr-22 10:31N 35°51' E 014°36'4 8.1
2017-Apr-22 10:00N 35°54' E 014°33'  
Track history (hours):
 
Tides and Currents Weather Stations Pressure Air Temp Water Temp Dewpoint Dewpoint Depression Visibility Wind Speed Wind Dir Waves Ship Positions

M/T Vemaoil Xi

Last reported at 2017-Apr-24 04:42 UTC. Time now 2017-Apr-24 09:59 UTC.
Position N 35°54' E 014°31'.

Length 105 m; draft 6 m.

Type: Tanker. MMSI: 215631000.

Date/timePositionNaut miles runAvg speedWind from/ knotsBaromVisibWave heightAir tempDewpointWater temp
2017-Apr-24 04:42N 35°54' E 014°31'1 5.6
2017-Apr-24 04:30N 35°54' E 014°33'3 7.0
2017-Apr-24 04:00N 35°52' E 014°36'2 1.1
2017-Apr-24 02:21N 35°50' E 014°35'0 0.0
2017-Apr-24 01:51N 35°50' E 014°35'0 0.0
2017-Apr-24 00:45N 35°50' E 014°35'0 0.0
2017-Apr-23 20:06N 35°50' E 014°36'0 0.0
2017-Apr-23 17:12N 35°50' E 014°36'0 0.0
2017-Apr-23 15:24N 35°50' E 014°36'0 0.0
2017-Apr-23 14:57N 35°50' E 014°36'0 0.0
2017-Apr-23 13:54N 35°50' E 014°36'0 0.0
2017-Apr-23 13:09N 35°50' E 014°36'0 0.0
2017-Apr-23 12:54N 35°50' E 014°36'0 0.0
2017-Apr-23 12:30N 35°50' E 014°36'0 0.0
2017-Apr-23 12:00N 35°50' E 014°36'0 0.0
2017-Apr-23 09:12N 35°50' E 014°36'0 0.1
2017-Apr-23 09:00N 35°50' E 014°36'0 0.0
2017-Apr-23 08:24N 35°50' E 014°36'0 0.0
2017-Apr-22 10:45N 35°50' E 014°36'1 4.9
2017-Apr-22 10:31N 35°51' E 014°36'4 8.1
2017-Apr-22 10:00N 35°54' E 014°33'  

Dump ship's entire track history